sensor_id;sensor_type;location;lat;lon;timestamp;temperature;humidity
3075;DHT22;1548;51.716;8.748;2022-12-07T00:01:39;3.70;84.40
3075;DHT22;1548;51.716;8.748;2022-12-07T00:04:06;3.70;84.60
3075;DHT22;1548;51.716;8.748;2022-12-07T00:06:34;3.80;84.60
3075;DHT22;1548;51.716;8.748;2022-12-07T00:09:01;3.90;84.50
3075;DHT22;1548;51.716;8.748;2022-12-07T00:11:26;3.80;84.70
3075;DHT22;1548;51.716;8.748;2022-12-07T00:13:54;3.80;84.70
3075;DHT22;1548;51.716;8.748;2022-12-07T00:16:22;3.80;84.70
3075;DHT22;1548;51.716;8.748;2022-12-07T00:18:48;3.90;84.60
3075;DHT22;1548;51.716;8.748;2022-12-07T00:21:20;3.90;84.60
3075;DHT22;1548;51.716;8.748;2022-12-07T00:23:47;3.90;84.70
3075;DHT22;1548;51.716;8.748;2022-12-07T00:26:18;3.80;84.80
3075;DHT22;1548;51.716;8.748;2022-12-07T00:28:55;3.80;84.70
3075;DHT22;1548;51.716;8.748;2022-12-07T00:31:25;3.90;84.70
3075;DHT22;1548;51.716;8.748;2022-12-07T00:33:51;3.90;84.70
3075;DHT22;1548;51.716;8.748;2022-12-07T00:36:20;3.80;84.80
3075;DHT22;1548;51.716;8.748;2022-12-07T00:38:46;3.90;84.70
3075;DHT22;1548;51.716;8.748;2022-12-07T00:41:13;3.90;84.70
3075;DHT22;1548;51.716;8.748;2022-12-07T00:43:39;4.00;84.70
3075;DHT22;1548;51.716;8.748;2022-12-07T00:46:05;3.90;84.70
3075;DHT22;1548;51.716;8.748;2022-12-07T00:48:31;3.90;84.80
3075;DHT22;1548;51.716;8.748;2022-12-07T00:50:57;3.90;84.70
3075;DHT22;1548;51.716;8.748;2022-12-07T00:53:23;3.90;84.80
3075;DHT22;1548;51.716;8.748;2022-12-07T00:55:48;3.90;84.80
3075;DHT22;1548;51.716;8.748;2022-12-07T00:58:14;3.90;84.80
3075;DHT22;1548;51.716;8.748;2022-12-07T01:00:41;4.00;84.80
3075;DHT22;1548;51.716;8.748;2022-12-07T01:03:09;4.00;84.80
3075;DHT22;1548;51.716;8.748;2022-12-07T01:05:35;3.90;84.80
3075;DHT22;1548;51.716;8.748;2022-12-07T01:08:01;3.90;84.80
3075;DHT22;1548;51.716;8.748;2022-12-07T01:10:27;4.00;84.80
3075;DHT22;1548;51.716;8.748;2022-12-07T01:12:53;4.00;84.80
3075;DHT22;1548;51.716;8.748;2022-12-07T01:15:18;3.90;84.90
3075;DHT22;1548;51.716;8.748;2022-12-07T01:17:44;4.00;84.90
3075;DHT22;1548;51.716;8.748;2022-12-07T01:20:10;4.00;84.90
3075;DHT22;1548;51.716;8.748;2022-12-07T01:22:38;3.90;84.90
3075;DHT22;1548;51.716;8.748;2022-12-07T01:25:04;4.00;84.90
3075;DHT22;1548;51.716;8.748;2022-12-07T01:27:30;4.10;84.90
3075;DHT22;1548;51.716;8.748;2022-12-07T01:29:56;4.10;84.90
3075;DHT22;1548;51.716;8.748;2022-12-07T01:32:22;4.00;85.00
3075;DHT22;1548;51.716;8.748;2022-12-07T01:34:48;4.00;84.90
3075;DHT22;1548;51.716;8.748;2022-12-07T01:37:13;4.00;84.90
3075;DHT22;1548;51.716;8.748;2022-12-07T01:39:39;4.00;84.90
3075;DHT22;1548;51.716;8.748;2022-12-07T01:42:05;4.10;84.90
3075;DHT22;1548;51.716;8.748;2022-12-07T01:44:31;4.00;84.90
3075;DHT22;1548;51.716;8.748;2022-12-07T01:47:00;4.10;84.90
3075;DHT22;1548;51.716;8.748;2022-12-07T01:49:31;4.10;84.90
3075;DHT22;1548;51.716;8.748;2022-12-07T01:54:34;4.20;84.90
3075;DHT22;1548;51.716;8.748;2022-12-07T01:57:01;4.20;85.00
3075;DHT22;1548;51.716;8.748;2022-12-07T01:59:28;4.10;84.90
3075;DHT22;1548;51.716;8.748;2022-12-07T02:01:55;4.10;84.90
3075;DHT22;1548;51.716;8.748;2022-12-07T02:04:22;4.10;84.80
3075;DHT22;1548;51.716;8.748;2022-12-07T02:06:48;4.10;84.90
3075;DHT22;1548;51.716;8.748;2022-12-07T02:09:15;4.20;84.90
3075;DHT22;1548;51.716;8.748;2022-12-07T02:11:41;4.10;84.90
3075;DHT22;1548;51.716;8.748;2022-12-07T02:14:06;4.10;84.80
3075;DHT22;1548;51.716;8.748;2022-12-07T02:17:31;4.10;84.80
3075;DHT22;1548;51.716;8.748;2022-12-07T02:22:02;4.10;84.80
3075;DHT22;1548;51.716;8.748;2022-12-07T02:30:03;4.10;84.80
3075;DHT22;1548;51.716;8.748;2022-12-07T02:43:19;4.10;84.80
3075;DHT22;1548;51.716;8.748;2022-12-07T02:45:46;4.20;84.80
3075;DHT22;1548;51.716;8.748;2022-12-07T02:48:16;4.10;84.80
3075;DHT22;1548;51.716;8.748;2022-12-07T02:50:50;4.20;84.80
3075;DHT22;1548;51.716;8.748;2022-12-07T02:53:35;4.20;84.80
3075;DHT22;1548;51.716;8.748;2022-12-07T03:04:53;4.20;84.90
3075;DHT22;1548;51.716;8.748;2022-12-07T03:10:28;4.20;84.70
3075;DHT22;1548;51.716;8.748;2022-12-07T03:13:25;4.20;84.80
3075;DHT22;1548;51.716;8.748;2022-12-07T03:16:15;4.20;84.70
3075;DHT22;1548;51.716;8.748;2022-12-07T03:21:18;4.20;84.70
3075;DHT22;1548;51.716;8.748;2022-12-07T03:23:46;4.20;84.70
3075;DHT22;1548;51.716;8.748;2022-12-07T03:26:14;4.20;84.70
3075;DHT22;1548;51.716;8.748;2022-12-07T03:28:47;4.10;84.70
3075;DHT22;1548;51.716;8.748;2022-12-07T03:31:16;4.20;84.70
3075;DHT22;1548;51.716;8.748;2022-12-07T03:36:37;4.20;84.70
3075;DHT22;1548;51.716;8.748;2022-12-07T03:41:39;4.10;84.80
3075;DHT22;1548;51.716;8.748;2022-12-07T03:44:06;4.20;84.70
3075;DHT22;1548;51.716;8.748;2022-12-07T03:49:25;4.20;84.70
3075;DHT22;1548;51.716;8.748;2022-12-07T03:51:56;4.20;84.70
3075;DHT22;1548;51.716;8.748;2022-12-07T03:54:36;4.20;84.70
3075;DHT22;1548;51.716;8.748;2022-12-07T03:57:04;4.20;84.80
3075;DHT22;1548;51.716;8.748;2022-12-07T03:59:30;4.10;84.90
3075;DHT22;1548;51.716;8.748;2022-12-07T04:02:03;4.20;84.80
3075;DHT22;1548;51.716;8.748;2022-12-07T04:04:29;4.20;84.80
3075;DHT22;1548;51.716;8.748;2022-12-07T04:06:54;4.20;84.90
3075;DHT22;1548;51.716;8.748;2022-12-07T04:09:20;4.20;85.00
3075;DHT22;1548;51.716;8.748;2022-12-07T04:11:46;4.20;84.80
3075;DHT22;1548;51.716;8.748;2022-12-07T04:14:12;4.20;84.80
3075;DHT22;1548;51.716;8.748;2022-12-07T04:16:44;4.20;84.80
3075;DHT22;1548;51.716;8.748;2022-12-07T04:19:10;4.20;85.10
3075;DHT22;1548;51.716;8.748;2022-12-07T04:21:36;4.10;85.00
3075;DHT22;1548;51.716;8.748;2022-12-07T04:24:01;4.10;84.90
3075;DHT22;1548;51.716;8.748;2022-12-07T04:26:27;4.10;85.00
3075;DHT22;1548;51.716;8.748;2022-12-07T04:28:53;4.10;85.00
3075;DHT22;1548;51.716;8.748;2022-12-07T04:31:19;4.00;85.00
3075;DHT22;1548;51.716;8.748;2022-12-07T04:33:44;4.10;85.10
3075;DHT22;1548;51.716;8.748;2022-12-07T04:36:10;4.00;85.00
3075;DHT22;1548;51.716;8.748;2022-12-07T04:38:35;4.10;85.20
3075;DHT22;1548;51.716;8.748;2022-12-07T04:41:05;4.20;85.20
3075;DHT22;1548;51.716;8.748;2022-12-07T04:43:31;4.00;85.00
3075;DHT22;1548;51.716;8.748;2022-12-07T04:45:57;4.00;85.00
3075;DHT22;1548;51.716;8.748;2022-12-07T04:48:22;4.00;85.10
3075;DHT22;1548;51.716;8.748;2022-12-07T04:50:48;3.90;85.10
3075;DHT22;1548;51.716;8.748;2022-12-07T04:53:15;4.00;85.20
3075;DHT22;1548;51.716;8.748;2022-12-07T04:55:40;3.90;85.00
3075;DHT22;1548;51.716;8.748;2022-12-07T04:58:06;4.00;85.00
3075;DHT22;1548;51.716;8.748;2022-12-07T05:00:32;4.00;85.00
3075;DHT22;1548;51.716;8.748;2022-12-07T05:02:57;4.00;85.00
3075;DHT22;1548;51.716;8.748;2022-12-07T05:05:23;4.00;85.00
3075;DHT22;1548;51.716;8.748;2022-12-07T05:07:49;4.00;85.10
3075;DHT22;1548;51.716;8.748;2022-12-07T05:10:15;3.90;85.00
3075;DHT22;1548;51.716;8.748;2022-12-07T05:12:41;3.90;84.80
3075;DHT22;1548;51.716;8.748;2022-12-07T05:15:06;4.00;84.90
3075;DHT22;1548;51.716;8.748;2022-12-07T05:17:32;4.00;85.00
3075;DHT22;1548;51.716;8.748;2022-12-07T05:19:58;3.90;84.80
3075;DHT22;1548;51.716;8.748;2022-12-07T05:22:23;3.90;84.90
3075;DHT22;1548;51.716;8.748;2022-12-07T05:24:56;3.90;84.80
3075;DHT22;1548;51.716;8.748;2022-12-07T05:27:22;3.90;84.80
3075;DHT22;1548;51.716;8.748;2022-12-07T05:29:49;3.80;84.90
3075;DHT22;1548;51.716;8.748;2022-12-07T05:32:14;3.80;84.90
3075;DHT22;1548;51.716;8.748;2022-12-07T05:34:40;3.80;85.10
3075;DHT22;1548;51.716;8.748;2022-12-07T05:37:05;3.70;84.90
3075;DHT22;1548;51.716;8.748;2022-12-07T05:39:31;3.70;84.90
3075;DHT22;1548;51.716;8.748;2022-12-07T05:41:56;3.60;84.80
3075;DHT22;1548;51.716;8.748;2022-12-07T05:44:38;3.70;85.00
3075;DHT22;1548;51.716;8.748;2022-12-07T05:47:03;3.60;84.80
3075;DHT22;1548;51.716;8.748;2022-12-07T05:49:29;3.70;84.80
3075;DHT22;1548;51.716;8.748;2022-12-07T05:51:55;3.60;84.80
3075;DHT22;1548;51.716;8.748;2022-12-07T05:54:21;3.60;84.80
3075;DHT22;1548;51.716;8.748;2022-12-07T05:56:46;3.70;84.80
3075;DHT22;1548;51.716;8.748;2022-12-07T05:59:12;3.70;84.90
3075;DHT22;1548;51.716;8.748;2022-12-07T06:01:58;3.70;84.90
3075;DHT22;1548;51.716;8.748;2022-12-07T06:04:26;3.50;84.80
3075;DHT22;1548;51.716;8.748;2022-12-07T06:06:52;3.50;84.80
3075;DHT22;1548;51.716;8.748;2022-12-07T06:09:19;3.60;84.80
3075;DHT22;1548;51.716;8.748;2022-12-07T06:11:45;3.50;84.90
3075;DHT22;1548;51.716;8.748;2022-12-07T06:14:29;3.50;84.80
3075;DHT22;1548;51.716;8.748;2022-12-07T06:16:55;3.50;84.80
3075;DHT22;1548;51.716;8.748;2022-12-07T06:19:21;3.40;84.80
3075;DHT22;1548;51.716;8.748;2022-12-07T06:21:46;3.50;84.80
3075;DHT22;1548;51.716;8.748;2022-12-07T06:24:13;3.50;84.90
3075;DHT22;1548;51.716;8.748;2022-12-07T06:26:40;3.50;84.80
3075;DHT22;1548;51.716;8.748;2022-12-07T06:29:05;3.50;84.80
3075;DHT22;1548;51.716;8.748;2022-12-07T06:31:31;3.50;84.80
3075;DHT22;1548;51.716;8.748;2022-12-07T06:34:02;3.50;84.80
3075;DHT22;1548;51.716;8.748;2022-12-07T06:36:28;3.60;84.80
3075;DHT22;1548;51.716;8.748;2022-12-07T06:38:53;3.50;84.90
3075;DHT22;1548;51.716;8.748;2022-12-07T06:41:19;3.40;84.80
3075;DHT22;1548;51.716;8.748;2022-12-07T06:43:45;3.40;84.70
3075;DHT22;1548;51.716;8.748;2022-12-07T06:46:10;3.40;84.80
3075;DHT22;1548;51.716;8.748;2022-12-07T06:48:36;3.50;84.70
3075;DHT22;1548;51.716;8.748;2022-12-07T06:51:01;3.50;84.80
3075;DHT22;1548;51.716;8.748;2022-12-07T06:53:27;3.50;84.90
3075;DHT22;1548;51.716;8.748;2022-12-07T06:55:52;3.50;84.80
3075;DHT22;1548;51.716;8.748;2022-12-07T06:58:18;3.40;84.90
3075;DHT22;1548;51.716;8.748;2022-12-07T07:00:44;3.40;84.80
3075;DHT22;1548;51.716;8.748;2022-12-07T07:03:10;3.40;85.00
3075;DHT22;1548;51.716;8.748;2022-12-07T07:05:35;3.50;84.70
3075;DHT22;1548;51.716;8.748;2022-12-07T07:08:01;3.40;85.00
3075;DHT22;1548;51.716;8.748;2022-12-07T07:10:27;3.30;84.80
3075;DHT22;1548;51.716;8.748;2022-12-07T07:12:53;3.40;84.80
3075;DHT22;1548;51.716;8.748;2022-12-07T07:15:19;3.30;84.90
3075;DHT22;1548;51.716;8.748;2022-12-07T07:17:44;3.30;84.80
3075;DHT22;1548;51.716;8.748;2022-12-07T07:20:10;3.20;84.80
3075;DHT22;1548;51.716;8.748;2022-12-07T07:22:36;3.20;84.80
3075;DHT22;1548;51.716;8.748;2022-12-07T07:25:03;3.30;84.80
3075;DHT22;1548;51.716;8.748;2022-12-07T07:27:29;3.40;84.80
3075;DHT22;1548;51.716;8.748;2022-12-07T07:29:54;3.30;84.90
3075;DHT22;1548;51.716;8.748;2022-12-07T07:32:20;3.40;84.90
3075;DHT22;1548;51.716;8.748;2022-12-07T07:34:47;3.40;85.20
3075;DHT22;1548;51.716;8.748;2022-12-07T07:37:12;3.20;84.90
3075;DHT22;1548;51.716;8.748;2022-12-07T07:39:39;3.20;84.90
3075;DHT22;1548;51.716;8.748;2022-12-07T07:42:05;3.20;84.90
3075;DHT22;1548;51.716;8.748;2022-12-07T07:44:34;3.20;85.00
3075;DHT22;1548;51.716;8.748;2022-12-07T07:47:00;3.10;84.90
3075;DHT22;1548;51.716;8.748;2022-12-07T07:49:26;3.10;84.90
3075;DHT22;1548;51.716;8.748;2022-12-07T07:51:52;3.10;85.00
3075;DHT22;1548;51.716;8.748;2022-12-07T07:54:17;3.10;85.00
3075;DHT22;1548;51.716;8.748;2022-12-07T07:56:43;3.00;85.00
3075;DHT22;1548;51.716;8.748;2022-12-07T07:59:08;3.10;84.90
3075;DHT22;1548;51.716;8.748;2022-12-07T08:01:34;3.10;85.00
3075;DHT22;1548;51.716;8.748;2022-12-07T08:04:00;3.10;85.00
3075;DHT22;1548;51.716;8.748;2022-12-07T08:06:25;3.10;85.00
3075;DHT22;1548;51.716;8.748;2022-12-07T08:08:52;3.00;84.90
3075;DHT22;1548;51.716;8.748;2022-12-07T08:11:17;3.10;85.00
3075;DHT22;1548;51.716;8.748;2022-12-07T08:13:45;3.00;84.90
3075;DHT22;1548;51.716;8.748;2022-12-07T08:16:12;3.10;84.90
3075;DHT22;1548;51.716;8.748;2022-12-07T08:18:39;3.00;85.00
3075;DHT22;1548;51.716;8.748;2022-12-07T08:21:06;3.00;84.90
3075;DHT22;1548;51.716;8.748;2022-12-07T08:23:32;3.00;84.90
3075;DHT22;1548;51.716;8.748;2022-12-07T08:26:04;3.00;85.00
3075;DHT22;1548;51.716;8.748;2022-12-07T08:28:29;3.00;84.90
3075;DHT22;1548;51.716;8.748;2022-12-07T08:30:59;3.00;85.10
3075;DHT22;1548;51.716;8.748;2022-12-07T08:33:25;3.00;84.90
3075;DHT22;1548;51.716;8.748;2022-12-07T08:35:51;3.20;84.90
3075;DHT22;1548;51.716;8.748;2022-12-07T08:38:17;3.00;85.00
3075;DHT22;1548;51.716;8.748;2022-12-07T08:40:42;3.00;84.90
3075;DHT22;1548;51.716;8.748;2022-12-07T08:43:08;3.10;85.00
3075;DHT22;1548;51.716;8.748;2022-12-07T08:45:33;3.10;85.10
3075;DHT22;1548;51.716;8.748;2022-12-07T08:48:09;3.10;84.90
3075;DHT22;1548;51.716;8.748;2022-12-07T08:50:37;3.10;85.30
3075;DHT22;1548;51.716;8.748;2022-12-07T08:53:04;3.20;85.00
3075;DHT22;1548;51.716;8.748;2022-12-07T08:55:31;3.20;84.90
3075;DHT22;1548;51.716;8.748;2022-12-07T08:57:58;3.10;85.00
3075;DHT22;1548;51.716;8.748;2022-12-07T09:00:25;3.10;85.10
3075;DHT22;1548;51.716;8.748;2022-12-07T09:02:51;3.10;85.00
3075;DHT22;1548;51.716;8.748;2022-12-07T09:05:17;3.30;84.90
3075;DHT22;1548;51.716;8.748;2022-12-07T09:07:48;3.30;85.20
3075;DHT22;1548;51.716;8.748;2022-12-07T09:10:16;3.20;85.00
3075;DHT22;1548;51.716;8.748;2022-12-07T09:12:42;3.30;84.90
3075;DHT22;1548;51.716;8.748;2022-12-07T09:15:08;3.20;85.20
3075;DHT22;1548;51.716;8.748;2022-12-07T09:17:34;3.20;85.20
3075;DHT22;1548;51.716;8.748;2022-12-07T09:20:03;3.20;85.10
3075;DHT22;1548;51.716;8.748;2022-12-07T09:22:32;3.20;85.00
3075;DHT22;1548;51.716;8.748;2022-12-07T09:24:58;3.20;85.10
3075;DHT22;1548;51.716;8.748;2022-12-07T09:27:25;3.30;85.20
3075;DHT22;1548;51.716;8.748;2022-12-07T09:29:50;3.40;84.90
3075;DHT22;1548;51.716;8.748;2022-12-07T09:32:16;3.30;85.20
3075;DHT22;1548;51.716;8.748;2022-12-07T09:34:41;3.30;85.20
3075;DHT22;1548;51.716;8.748;2022-12-07T09:37:07;3.40;85.20
3075;DHT22;1548;51.716;8.748;2022-12-07T09:39:33;3.40;85.20
3075;DHT22;1548;51.716;8.748;2022-12-07T09:41:59;3.40;85.00
3075;DHT22;1548;51.716;8.748;2022-12-07T09:44:28;3.40;85.20
3075;DHT22;1548;51.716;8.748;2022-12-07T09:46:54;3.40;85.00
3075;DHT22;1548;51.716;8.748;2022-12-07T09:49:22;3.30;85.00
3075;DHT22;1548;51.716;8.748;2022-12-07T09:52:00;3.40;85.30
3075;DHT22;1548;51.716;8.748;2022-12-07T09:54:26;3.40;85.20
3075;DHT22;1548;51.716;8.748;2022-12-07T09:56:53;3.40;85.00
3075;DHT22;1548;51.716;8.748;2022-12-07T09:59:19;3.40;85.20
3075;DHT22;1548;51.716;8.748;2022-12-07T10:01:49;3.50;85.20
3075;DHT22;1548;51.716;8.748;2022-12-07T10:04:21;3.60;85.20
3075;DHT22;1548;51.716;8.748;2022-12-07T10:06:47;3.60;85.10
3075;DHT22;1548;51.716;8.748;2022-12-07T10:09:15;3.80;85.10
3075;DHT22;1548;51.716;8.748;2022-12-07T10:12:02;3.70;85.30
3075;DHT22;1548;51.716;8.748;2022-12-07T10:14:29;3.60;85.20
3075;DHT22;1548;51.716;8.748;2022-12-07T10:16:55;3.70;85.10
3075;DHT22;1548;51.716;8.748;2022-12-07T10:19:26;3.70;85.60
3075;DHT22;1548;51.716;8.748;2022-12-07T10:22:05;3.80;85.20
3075;DHT22;1548;51.716;8.748;2022-12-07T10:24:31;3.80;85.40
3075;DHT22;1548;51.716;8.748;2022-12-07T10:26:57;3.70;85.10
3075;DHT22;1548;51.716;8.748;2022-12-07T10:29:34;3.70;85.20
3075;DHT22;1548;51.716;8.748;2022-12-07T10:32:23;3.90;85.20
3075;DHT22;1548;51.716;8.748;2022-12-07T10:34:52;3.80;85.40
3075;DHT22;1548;51.716;8.748;2022-12-07T10:37:41;3.80;85.10
3075;DHT22;1548;51.716;8.748;2022-12-07T10:43:01;3.80;85.20
3075;DHT22;1548;51.716;8.748;2022-12-07T10:45:28;3.90;85.00
3075;DHT22;1548;51.716;8.748;2022-12-07T10:48:16;4.00;85.20
3075;DHT22;1548;51.716;8.748;2022-12-07T10:51:10;3.90;85.20
3075;DHT22;1548;51.716;8.748;2022-12-07T10:54:10;4.00;85.10
3075;DHT22;1548;51.716;8.748;2022-12-07T10:56:58;4.00;85.10
3075;DHT22;1548;51.716;8.748;2022-12-07T10:59:53;4.10;85.10
3075;DHT22;1548;51.716;8.748;2022-12-07T11:13:33;4.40;85.00
3075;DHT22;1548;51.716;8.748;2022-12-07T11:16:05;4.40;85.20
3075;DHT22;1548;51.716;8.748;2022-12-07T11:18:49;4.40;85.10
3075;DHT22;1548;51.716;8.748;2022-12-07T11:27:37;4.60;85.10
3075;DHT22;1548;51.716;8.748;2022-12-07T11:30:19;4.30;85.00
3075;DHT22;1548;51.716;8.748;2022-12-07T11:38:01;4.20;85.10
3075;DHT22;1548;51.716;8.748;2022-12-07T11:40:36;4.20;85.00
3075;DHT22;1548;51.716;8.748;2022-12-07T11:46:10;4.20;85.20
3075;DHT22;1548;51.716;8.748;2022-12-07T11:48:54;4.30;85.00
3075;DHT22;1548;51.716;8.748;2022-12-07T11:51:24;4.40;85.30
3075;DHT22;1548;51.716;8.748;2022-12-07T11:54:21;4.30;85.20
3075;DHT22;1548;51.716;8.748;2022-12-07T11:56:50;4.40;85.10
3075;DHT22;1548;51.716;8.748;2022-12-07T11:59:17;4.50;85.30
3075;DHT22;1548;51.716;8.748;2022-12-07T12:07:21;4.40;85.20
3075;DHT22;1548;51.716;8.748;2022-12-07T12:10:06;4.40;85.20
3075;DHT22;1548;51.716;8.748;2022-12-07T12:13:10;4.50;85.00
3075;DHT22;1548;51.716;8.748;2022-12-07T12:15:51;4.70;85.00
3075;DHT22;1548;51.716;8.748;2022-12-07T12:21:16;4.80;85.00
3075;DHT22;1548;51.716;8.748;2022-12-07T12:23:51;4.80;85.70
3075;DHT22;1548;51.716;8.748;2022-12-07T12:26:23;4.70;85.10
3075;DHT22;1548;51.716;8.748;2022-12-07T12:29:06;4.70;85.40
3075;DHT22;1548;51.716;8.748;2022-12-07T12:31:40;4.50;85.40
3075;DHT22;1548;51.716;8.748;2022-12-07T12:34:30;4.60;85.30
3075;DHT22;1548;51.716;8.748;2022-12-07T12:36:56;4.60;84.80
3075;DHT22;1548;51.716;8.748;2022-12-07T12:39:21;4.90;85.20
3075;DHT22;1548;51.716;8.748;2022-12-07T12:46:55;4.50;85.10
3075;DHT22;1548;51.716;8.748;2022-12-07T12:51:52;4.60;85.00
3075;DHT22;1548;51.716;8.748;2022-12-07T12:54:22;4.60;85.00
3075;DHT22;1548;51.716;8.748;2022-12-07T12:56:57;4.50;85.30
3075;DHT22;1548;51.716;8.748;2022-12-07T12:59:31;4.70;85.10
3075;DHT22;1548;51.716;8.748;2022-12-07T13:15:36;4.60;84.90
3075;DHT22;1548;51.716;8.748;2022-12-07T13:18:21;4.60;85.10
3075;DHT22;1548;51.716;8.748;2022-12-07T13:26:02;4.80;85.00
3075;DHT22;1548;51.716;8.748;2022-12-07T13:28:37;4.90;85.00
3075;DHT22;1548;51.716;8.748;2022-12-07T13:31:30;5.00;84.90
3075;DHT22;1548;51.716;8.748;2022-12-07T13:33:57;4.90;84.90
3075;DHT22;1548;51.716;8.748;2022-12-07T13:36:27;4.90;85.10
3075;DHT22;1548;51.716;8.748;2022-12-07T13:38:58;4.80;85.00
3075;DHT22;1548;51.716;8.748;2022-12-07T13:41:27;4.80;84.90
3075;DHT22;1548;51.716;8.748;2022-12-07T13:44:13;4.80;85.00
3075;DHT22;1548;51.716;8.748;2022-12-07T13:46:53;4.80;85.00
3075;DHT22;1548;51.716;8.748;2022-12-07T13:49:28;4.70;84.90
3075;DHT22;1548;51.716;8.748;2022-12-07T13:55:14;4.70;85.30
3075;DHT22;1548;51.716;8.748;2022-12-07T13:57:35;4.70;85.20
3075;DHT22;1548;51.716;8.748;2022-12-07T14:00:04;4.70;85.30
3075;DHT22;1548;51.716;8.748;2022-12-07T14:02:34;4.60;84.90
3075;DHT22;1548;51.716;8.748;2022-12-07T14:05:29;4.70;84.90
3075;DHT22;1548;51.716;8.748;2022-12-07T14:08:20;4.70;85.10
3075;DHT22;1548;51.716;8.748;2022-12-07T14:13:31;4.70;85.00
3075;DHT22;1548;51.716;8.748;2022-12-07T14:15:57;4.80;84.90
3075;DHT22;1548;51.716;8.748;2022-12-07T14:18:37;4.70;84.80
3075;DHT22;1548;51.716;8.748;2022-12-07T14:23:36;4.80;85.00
3075;DHT22;1548;51.716;8.748;2022-12-07T14:26:12;4.70;85.00
3075;DHT22;1548;51.716;8.748;2022-12-07T14:28:42;4.70;84.90
3075;DHT22;1548;51.716;8.748;2022-12-07T14:33:37;4.80;85.00
3075;DHT22;1548;51.716;8.748;2022-12-07T14:36:03;4.70;84.90
3075;DHT22;1548;51.716;8.748;2022-12-07T14:38:28;4.80;85.00
3075;DHT22;1548;51.716;8.748;2022-12-07T14:40:55;4.70;84.80
3075;DHT22;1548;51.716;8.748;2022-12-07T14:43:40;4.70;85.00
3075;DHT22;1548;51.716;8.748;2022-12-07T14:46:06;4.50;84.80
3075;DHT22;1548;51.716;8.748;2022-12-07T14:48:32;4.50;84.90
3075;DHT22;1548;51.716;8.748;2022-12-07T14:50:57;4.50;84.90
3075;DHT22;1548;51.716;8.748;2022-12-07T14:53:29;4.50;84.90
3075;DHT22;1548;51.716;8.748;2022-12-07T14:55:56;4.50;85.00
3075;DHT22;1548;51.716;8.748;2022-12-07T14:58:21;4.50;84.90
3075;DHT22;1548;51.716;8.748;2022-12-07T15:00:47;4.50;84.90
3075;DHT22;1548;51.716;8.748;2022-12-07T15:03:13;4.50;85.00
3075;DHT22;1548;51.716;8.748;2022-12-07T15:05:39;4.50;84.90
3075;DHT22;1548;51.716;8.748;2022-12-07T15:08:06;4.40;84.90
3075;DHT22;1548;51.716;8.748;2022-12-07T15:10:34;4.40;84.70
3075;DHT22;1548;51.716;8.748;2022-12-07T15:13:03;4.40;84.90
3075;DHT22;1548;51.716;8.748;2022-12-07T15:15:48;4.50;85.00
3075;DHT22;1548;51.716;8.748;2022-12-07T15:18:14;4.40;85.00
3075;DHT22;1548;51.716;8.748;2022-12-07T15:20:40;4.40;85.00
3075;DHT22;1548;51.716;8.748;2022-12-07T15:23:06;4.30;84.80
3075;DHT22;1548;51.716;8.748;2022-12-07T15:25:31;4.20;84.80
3075;DHT22;1548;51.716;8.748;2022-12-07T15:27:57;4.20;84.90
3075;DHT22;1548;51.716;8.748;2022-12-07T15:30:23;4.20;84.80
3075;DHT22;1548;51.716;8.748;2022-12-07T15:32:52;4.20;84.90
3075;DHT22;1548;51.716;8.748;2022-12-07T15:35:18;4.20;84.80
3075;DHT22;1548;51.716;8.748;2022-12-07T15:37:44;4.20;85.00
3075;DHT22;1548;51.716;8.748;2022-12-07T15:40:10;4.10;84.90
3075;DHT22;1548;51.716;8.748;2022-12-07T15:42:36;4.00;84.80
3075;DHT22;1548;51.716;8.748;2022-12-07T15:45:02;4.00;84.80
3075;DHT22;1548;51.716;8.748;2022-12-07T15:47:33;4.00;84.80
3075;DHT22;1548;51.716;8.748;2022-12-07T15:50:00;4.00;84.80
3075;DHT22;1548;51.716;8.748;2022-12-07T15:52:25;4.00;84.80
3075;DHT22;1548;51.716;8.748;2022-12-07T15:54:51;3.90;84.80
3075;DHT22;1548;51.716;8.748;2022-12-07T15:57:17;4.00;84.90
3075;DHT22;1548;51.716;8.748;2022-12-07T15:59:46;3.90;84.90
3075;DHT22;1548;51.716;8.748;2022-12-07T16:02:12;3.90;84.80
3075;DHT22;1548;51.716;8.748;2022-12-07T16:04:38;3.90;84.90
3075;DHT22;1548;51.716;8.748;2022-12-07T16:07:03;3.80;85.00
3075;DHT22;1548;51.716;8.748;2022-12-07T16:09:29;3.80;84.90
3075;DHT22;1548;51.716;8.748;2022-12-07T16:11:54;3.90;84.80
3075;DHT22;1548;51.716;8.748;2022-12-07T16:14:20;3.90;84.80
3075;DHT22;1548;51.716;8.748;2022-12-07T16:16:47;4.00;84.90
3075;DHT22;1548;51.716;8.748;2022-12-07T16:19:12;4.00;85.10
3075;DHT22;1548;51.716;8.748;2022-12-07T16:21:38;3.90;85.10
3075;DHT22;1548;51.716;8.748;2022-12-07T16:24:05;4.00;84.90
3075;DHT22;1548;51.716;8.748;2022-12-07T16:26:31;3.90;84.90
3075;DHT22;1548;51.716;8.748;2022-12-07T16:28:57;4.00;85.10
3075;DHT22;1548;51.716;8.748;2022-12-07T16:31:25;4.00;85.00
3075;DHT22;1548;51.716;8.748;2022-12-07T16:33:53;4.00;85.10
3075;DHT22;1548;51.716;8.748;2022-12-07T16:36:19;3.90;85.00
3075;DHT22;1548;51.716;8.748;2022-12-07T16:38:47;3.90;84.80
3075;DHT22;1548;51.716;8.748;2022-12-07T16:41:14;4.00;85.00
3075;DHT22;1548;51.716;8.748;2022-12-07T16:43:40;4.00;84.90
3075;DHT22;1548;51.716;8.748;2022-12-07T16:46:06;4.00;85.10
3075;DHT22;1548;51.716;8.748;2022-12-07T16:48:37;4.10;85.00
3075;DHT22;1548;51.716;8.748;2022-12-07T16:51:08;4.00;85.10
3075;DHT22;1548;51.716;8.748;2022-12-07T16:53:35;4.00;85.00
3075;DHT22;1548;51.716;8.748;2022-12-07T16:56:02;3.90;84.90
3075;DHT22;1548;51.716;8.748;2022-12-07T16:58:28;3.90;85.00
3075;DHT22;1548;51.716;8.748;2022-12-07T17:00:53;3.90;85.00
3075;DHT22;1548;51.716;8.748;2022-12-07T17:03:19;3.90;85.00
3075;DHT22;1548;51.716;8.748;2022-12-07T17:05:46;4.00;85.00
3075;DHT22;1548;51.716;8.748;2022-12-07T17:08:12;4.00;85.30
3075;DHT22;1548;51.716;8.748;2022-12-07T17:10:40;4.00;85.10
3075;DHT22;1548;51.716;8.748;2022-12-07T17:13:07;3.90;84.90
3075;DHT22;1548;51.716;8.748;2022-12-07T17:15:59;4.00;84.90
3075;DHT22;1548;51.716;8.748;2022-12-07T17:18:30;4.00;85.00
3075;DHT22;1548;51.716;8.748;2022-12-07T17:21:02;4.00;85.00
3075;DHT22;1548;51.716;8.748;2022-12-07T17:23:28;4.00;85.20
3075;DHT22;1548;51.716;8.748;2022-12-07T17:25:55;4.00;85.10
3075;DHT22;1548;51.716;8.748;2022-12-07T17:28:21;4.00;85.10
3075;DHT22;1548;51.716;8.748;2022-12-07T17:30:46;4.10;85.10
3075;DHT22;1548;51.716;8.748;2022-12-07T17:33:12;4.10;85.10
3075;DHT22;1548;51.716;8.748;2022-12-07T17:35:38;4.10;85.00
3075;DHT22;1548;51.716;8.748;2022-12-07T17:38:03;4.10;85.10
3075;DHT22;1548;51.716;8.748;2022-12-07T17:40:29;4.10;85.10
3075;DHT22;1548;51.716;8.748;2022-12-07T17:42:55;4.20;85.10
3075;DHT22;1548;51.716;8.748;2022-12-07T17:45:20;4.10;85.20
3075;DHT22;1548;51.716;8.748;2022-12-07T17:47:46;4.20;85.10
3075;DHT22;1548;51.716;8.748;2022-12-07T17:50:11;4.20;85.10
3075;DHT22;1548;51.716;8.748;2022-12-07T17:52:38;4.10;84.90
3075;DHT22;1548;51.716;8.748;2022-12-07T17:55:22;4.20;85.00
3075;DHT22;1548;51.716;8.748;2022-12-07T17:57:48;4.20;85.20
3075;DHT22;1548;51.716;8.748;2022-12-07T18:00:14;4.20;85.00
3075;DHT22;1548;51.716;8.748;2022-12-07T18:02:40;4.20;85.00
3075;DHT22;1548;51.716;8.748;2022-12-07T18:05:06;4.10;85.10
3075;DHT22;1548;51.716;8.748;2022-12-07T18:07:32;4.10;85.00
3075;DHT22;1548;51.716;8.748;2022-12-07T18:09:57;4.00;84.90
3075;DHT22;1548;51.716;8.748;2022-12-07T18:12:23;4.00;85.00
3075;DHT22;1548;51.716;8.748;2022-12-07T18:14:49;4.00;84.90
3075;DHT22;1548;51.716;8.748;2022-12-07T18:17:16;4.10;85.00
3075;DHT22;1548;51.716;8.748;2022-12-07T18:19:42;4.20;85.00
3075;DHT22;1548;51.716;8.748;2022-12-07T18:22:07;4.20;85.00
3075;DHT22;1548;51.716;8.748;2022-12-07T18:24:33;4.20;85.00
3075;DHT22;1548;51.716;8.748;2022-12-07T18:26:59;4.20;85.10